Time;durP1;ratioP1;P1;durP2;ratioP2;P2;SDS_P1;SDS_P2;PMS_P1;PMS_P2;Temp;Humidity;BMP_temperature;BMP_pressure;BME280_temperature;BME280_humidity;BME280_pressure;Samples;Min_cycle;Max_cycle;Signal;HPM_P1;HPM_P2
2023/04/30 00:01:59;;;;;;;;;;;;;;;4.80;100.00;99495.69;5034368;28;811;-54
2023/04/30 00:04:26;;;;;;;;;;;;;;;4.67;100.00;99495.13;5034292;28;1914;-54
2023/04/30 00:06:54;;;;;;;;;;;;;;;4.72;100.00;99488.53;5034282;28;818;-53
2023/04/30 00:09:21;;;;;;;;;;;;;;;4.76;100.00;99485.81;5034319;28;1203;-54
2023/04/30 00:11:47;;;;;;;;;;;;;;;4.73;100.00;99494.78;5034171;28;925;-55
2023/04/30 00:14:14;;;;;;;;;;;;;;;4.57;100.00;99487.53;5034160;28;811;-54
2023/04/30 00:16:42;;;;;;;;;;;;;;;4.38;100.00;99487.66;5034401;28;803;-54
2023/04/30 00:19:08;;;;;;;;;;;;;;;4.37;100.00;99494.28;5034004;28;791;-54
2023/04/30 00:21:35;;;;;;;;;;;;;;;4.46;100.00;99492.06;5032760;28;1434;-54
2023/04/30 00:24:02;;;;;;;;;;;;;;;4.54;100.00;99487.47;5033564;28;1906;-53
2023/04/30 00:26:29;;;;;;;;;;;;;;;4.53;100.00;99483.19;5033399;28;909;-54
2023/04/30 00:28:56;;;;;;;;;;;;;;;4.52;100.00;99487.84;5034213;28;851;-55
2023/04/30 00:31:23;;;;;;;;;;;;;;;4.52;100.00;99487.84;5033829;28;799;-55
2023/04/30 00:33:50;;;;;;;;;;;;;;;4.49;100.00;99486.63;5033801;28;840;-54
2023/04/30 00:36:18;;;;;;;;;;;;;;;4.59;100.00;99487.19;5033736;28;787;-55
2023/04/30 00:38:45;;;;;;;;;;;;;;;4.65;100.00;99491.97;5033693;28;832;-54
2023/04/30 00:41:12;;;;;;;;;;;;;;;4.69;100.00;99495.53;5033674;28;830;-53
2023/04/30 00:43:39;;;;;;;;;;;;;;;4.76;100.00;99492.09;5033952;28;783;-53
2023/04/30 00:46:05;;;;;;;;;;;;;;;4.87;100.00;99487.56;5033446;28;1953;-54
2023/04/30 00:48:32;;;;;;;;;;;;;;;4.98;100.00;99495.13;5033538;28;803;-54
2023/04/30 00:51:00;;;;;;;;;;;;;;;5.01;100.00;99483.41;5033609;28;839;-54
2023/04/30 00:53:27;;;;;;;;;;;;;;;4.94;100.00;99486.84;5033392;28;895;-55
2023/04/30 00:55:55;;;;;;;;;;;;;;;4.94;100.00;99486.06;5033307;28;850;-53
2023/04/30 00:58:21;;;;;;;;;;;;;;;4.84;100.00;99485.56;5033298;28;811;-54
2023/04/30 01:00:49;;;;;;;;;;;;;;;4.85;100.00;99480.88;5033353;28;893;-54
2023/04/30 01:03:15;;;;;;;;;;;;;;;4.83;100.00;99489.44;5033231;28;894;-55
2023/04/30 01:05:42;;;;;;;;;;;;;;;4.81;100.00;99477.28;5033101;28;1953;-54
2023/04/30 01:08:09;;;;;;;;;;;;;;;4.91;100.00;99482.13;5033271;28;928;-54
2023/04/30 01:10:47;;;;;;;;;;;;;;;5.10;100.00;99473.75;5032840;28;1233;-53
2023/04/30 01:13:38;;;;;;;;;;;;;;;5.33;100.00;99475.56;5033054;28;842;-55
2023/04/30 01:16:09;;;;;;;;;;;;;;;5.52;100.00;99471.84;5033047;28;849;-53
2023/04/30 01:18:40;;;;;;;;;;;;;;;5.69;100.00;99473.97;5032904;28;836;-53
2023/04/30 01:21:08;;;;;;;;;;;;;;;5.73;100.00;99468.53;5032939;28;826;-54
2023/04/30 01:23:41;;;;;;;;;;;;;;;5.52;100.00;99467.13;5032764;28;851;-55
2023/04/30 01:26:12;;;;;;;;;;;;;;;5.26;100.00;99470.00;5032995;28;1977;-53
2023/04/30 01:28:39;;;;;;;;;;;;;;;5.21;100.00;99471.13;5032785;28;798;-54
2023/04/30 01:31:12;;;;;;;;;;;;;;;5.30;100.00;99462.63;5032636;28;881;-54
2023/04/30 01:33:39;;;;;;;;;;;;;;;5.32;100.00;99463.03;5032711;28;901;-54
2023/04/30 01:36:12;;;;;;;;;;;;;;;5.05;100.00;99454.88;5032649;28;850;-54
2023/04/30 01:38:55;;;;;;;;;;;;;;;4.64;100.00;99463.00;5032576;28;847;-54
2023/04/30 01:41:25;;;;;;;;;;;;;;;4.28;100.00;99465.22;5032547;28;811;-55
2023/04/30 01:43:55;;;;;;;;;;;;;;;4.04;100.00;99462.91;5014795;28;1264;-54
2023/04/30 01:46:27;;;;;;;;;;;;;;;3.91;100.00;99464.25;5032364;28;1886;-55
2023/04/30 01:49:11;;;;;;;;;;;;;;;3.85;100.00;99450.88;5032501;28;794;-55
2023/04/30 01:51:46;;;;;;;;;;;;;;;3.70;100.00;99453.75;5032365;28;810;-55
2023/04/30 01:54:26;;;;;;;;;;;;;;;3.45;100.00;99456.81;5014433;28;1200;-55
2023/04/30 01:57:04;;;;;;;;;;;;;;;3.26;100.00;99452.19;5032467;28;839;-55
2023/04/30 01:59:38;;;;;;;;;;;;;;;3.33;100.00;99454.25;5032489;28;897;-55
2023/04/30 02:02:05;;;;;;;;;;;;;;;3.67;100.00;99460.75;5032407;28;877;-55
2023/04/30 02:04:32;;;;;;;;;;;;;;;4.02;100.00;99462.47;5032043;28;1886;-55
2023/04/30 02:06:59;;;;;;;;;;;;;;;4.14;100.00;99456.00;5032030;28;803;-55
2023/04/30 02:09:26;;;;;;;;;;;;;;;4.28;100.00;99457.00;5032032;28;1184;-55
2023/04/30 02:11:54;;;;;;;;;;;;;;;4.38;100.00;99463.03;5032024;28;878;-56
2023/04/30 02:14:20;;;;;;;;;;;;;;;4.46;100.00;99459.25;5032240;28;799;-54
2023/04/30 02:16:48;;;;;;;;;;;;;;;4.49;100.00;99462.00;5031908;28;775;-55
2023/04/30 02:19:15;;;;;;;;;;;;;;;4.46;100.00;99460.03;5031867;28;850;-54
2023/04/30 02:21:42;;;;;;;;;;;;;;;4.43;100.00;99460.75;5031814;28;806;-54
2023/04/30 02:24:08;;;;;;;;;;;;;;;4.36;100.00;99459.88;5031603;28;1910;-53
2023/04/30 02:26:38;;;;;;;;;;;;;;;4.32;100.00;99451.59;5031771;28;802;-55
2023/04/30 02:29:05;;;;;;;;;;;;;;;4.26;100.00;99448.38;5032031;28;858;-55
2023/04/30 02:31:32;;;;;;;;;;;;;;;4.26;100.00;99456.59;5031892;28;941;-55
2023/04/30 02:33:59;;;;;;;;;;;;;;;4.22;100.00;99465.91;5031674;28;854;-55
2023/04/30 02:36:26;;;;;;;;;;;;;;;4.16;100.00;99468.19;5031641;28;870;-55
2023/04/30 02:38:52;;;;;;;;;;;;;;;4.14;100.00;99466.94;5031635;28;811;-55
2023/04/30 02:41:20;;;;;;;;;;;;;;;4.14;100.00;99464.22;5031563;28;799;-55
2023/04/30 02:43:47;;;;;;;;;;;;;;;4.13;100.00;99462.66;5031537;28;803;-54
2023/04/30 02:46:14;;;;;;;;;;;;;;;4.09;100.00;99462.59;5031440;28;1959;-54
2023/04/30 02:48:40;;;;;;;;;;;;;;;4.10;100.00;99464.16;5031003;28;831;-54
2023/04/30 02:51:07;;;;;;;;;;;;;;;4.17;100.00;99466.22;5030125;28;1375;-54
2023/04/30 02:53:34;;;;;;;;;;;;;;;4.11;100.00;99465.75;5030124;28;1137;-54
2023/04/30 02:56:00;;;;;;;;;;;;;;;4.07;100.00;99462.94;5031461;28;858;-54
2023/04/30 02:58:26;;;;;;;;;;;;;;;4.04;100.00;99463.69;5031406;28;858;-53
2023/04/30 03:00:53;;;;;;;;;;;;;;;4.10;100.00;99464.16;5031400;28;819;-55
2023/04/30 03:03:19;;;;;;;;;;;;;;;4.05;100.00;99464.47;5031362;28;795;-55
2023/04/30 03:05:46;;;;;;;;;;;;;;;4.01;100.00;99456.22;5031350;28;1952;-55
2023/04/30 03:08:13;;;;;;;;;;;;;;;3.99;100.00;99463.19;5031394;28;972;-54
2023/04/30 03:10:40;;;;;;;;;;;;;;;3.97;100.00;99463.59;5031055;28;1243;-55
2023/04/30 03:13:07;;;;;;;;;;;;;;;3.91;100.00;99450.59;5031401;28;881;-55
2023/04/30 03:15:34;;;;;;;;;;;;;;;3.92;100.00;99454.88;5031303;28;904;-54
2023/04/30 03:18:00;;;;;;;;;;;;;;;3.94;100.00;99458.81;5031240;28;858;-54
2023/04/30 03:20:27;;;;;;;;;;;;;;;3.96;100.00;99464.72;5031252;28;928;-55
2023/04/30 03:22:54;;;;;;;;;;;;;;;3.93;100.00;99473.66;5031099;28;806;-55
2023/04/30 03:25:20;;;;;;;;;;;;;;;3.92;100.00;99465.81;5031150;28;1944;-54
2023/04/30 03:27:47;;;;;;;;;;;;;;;3.97;100.00;99466.31;5031163;28;826;-53
2023/04/30 03:30:14;;;;;;;;;;;;;;;4.03;100.00;99469.50;5031150;28;822;-54
2023/04/30 03:32:41;;;;;;;;;;;;;;;4.06;100.00;99472.31;5031096;28;958;-54
2023/04/30 03:35:08;;;;;;;;;;;;;;;4.10;100.00;99472.38;5031030;28;889;-53
2023/04/30 03:37:35;;;;;;;;;;;;;;;4.15;100.00;99476.75;5031155;28;807;-54
2023/04/30 03:40:05;;;;;;;;;;;;;;;4.20;100.00;99471.72;5030990;28;827;-55
2023/04/30 03:42:32;;;;;;;;;;;;;;;4.24;100.00;99478.06;5031018;28;909;-55
2023/04/30 03:44:59;;;;;;;;;;;;;;;4.30;100.00;99482.06;5030907;28;1945;-54
2023/04/30 03:47:25;;;;;;;;;;;;;;;4.36;100.00;99487.22;5031282;28;850;-54
2023/04/30 03:49:53;;;;;;;;;;;;;;;4.39;100.00;99481.00;5030990;28;819;-54
2023/04/30 03:52:21;;;;;;;;;;;;;;;4.47;100.00;99480.75;5030940;28;842;-55
2023/04/30 03:54:47;;;;;;;;;;;;;;;4.64;100.00;99479.41;5030895;28;803;-54
2023/04/30 03:57:14;;;;;;;;;;;;;;;4.77;100.00;99482.72;5031097;28;810;-55
2023/04/30 03:59:41;;;;;;;;;;;;;;;4.90;100.00;99480.53;5031459;28;874;-55
2023/04/30 04:02:08;;;;;;;;;;;;;;;5.04;100.00;99488.16;5034376;28;885;-55
2023/04/30 04:04:35;;;;;;;;;;;;;;;5.16;100.00;99482.41;5034322;28;1956;-55
2023/04/30 04:07:02;;;;;;;;;;;;;;;5.30;100.00;99479.06;5034292;28;850;-55
2023/04/30 04:09:29;;;;;;;;;;;;;;;5.48;100.00;99481.97;5034492;28;1191;-56
2023/04/30 04:11:56;;;;;;;;;;;;;;;5.62;100.00;99484.09;5034226;28;822;-56
2023/04/30 04:14:23;;;;;;;;;;;;;;;5.71;100.00;99479.09;5034193;28;811;-55
2023/04/30 04:16:49;;;;;;;;;;;;;;;5.83;100.00;99483.50;5034169;28;874;-55
2023/04/30 04:19:15;;;;;;;;;;;;;;;5.97;100.00;99485.59;5034065;28;799;-54
2023/04/30 04:21:42;;;;;;;;;;;;;;;6.11;100.00;99483.78;5033966;28;862;-55
2023/04/30 04:24:09;;;;;;;;;;;;;;;6.30;100.00;99482.75;5033955;28;1973;-56
2023/04/30 04:26:36;;;;;;;;;;;;;;;6.74;100.00;99486.53;5033981;28;852;-55
2023/04/30 04:29:03;;;;;;;;;;;;;;;7.06;100.00;99481.22;5016116;28;1197;-55
2023/04/30 04:31:30;;;;;;;;;;;;;;;7.27;100.00;99490.69;5033851;28;846;-56
2023/04/30 04:34:01;;;;;;;;;;;;;;;7.33;100.00;99473.44;5033826;28;795;-56
2023/04/30 04:36:29;;;;;;;;;;;;;;;7.43;100.00;99484.88;5033980;28;889;-55
2023/04/30 04:39:02;;;;;;;;;;;;;;;7.47;100.00;99480.94;5015978;28;1284;-55
2023/04/30 04:41:31;;;;;;;;;;;;;;;7.51;100.00;99483.69;5032449;28;1290;-55
2023/04/30 04:43:58;;;;;;;;;;;;;;;7.58;100.00;99489.22;5015841;28;1382;-55
2023/04/30 04:46:27;;;;;;;;;;;;;;;7.62;100.00;99483.72;5033649;28;1886;-55
2023/04/30 04:48:54;;;;;;;;;;;;;;;7.66;100.00;99485.31;5033736;28;845;-55
2023/04/30 04:51:20;;;;;;;;;;;;;;;7.79;100.00;99491.22;5015647;28;1216;-54
2023/04/30 04:53:46;;;;;;;;;;;;;;;7.94;100.00;99492.81;5032164;28;1271;-55
2023/04/30 04:56:13;;;;;;;;;;;;;;;8.09;100.00;99495.56;5033499;28;798;-55
2023/04/30 04:58:41;;;;;;;;;;;;;;;8.26;100.00;99491.25;5033364;28;835;-54
2023/04/30 05:01:08;;;;;;;;;;;;;;;8.43;100.00;99481.41;5033305;28;846;-53
2023/04/30 05:03:35;;;;;;;;;;;;;;;8.59;100.00;99487.28;5033535;28;881;-54
2023/04/30 05:06:03;;;;;;;;;;;;;;;9.06;100.00;99487.94;5033213;28;1949;-53
2023/04/30 05:08:30;;;;;;;;;;;;;;;9.46;100.00;99494.06;5033104;28;970;-54
2023/04/30 05:13:59;;;;;;;;;;;;;;;10.12;94.29;99490.47;5033259;28;624;-55
2023/04/30 05:16:25;;;;;;;;;;;;;;;10.47;93.02;99468.50;5033190;28;846;-55
2023/04/30 05:18:52;;;;;;;;;;;;;;;11.41;87.55;99497.44;5033191;28;803;-55
2023/04/30 05:21:19;;;;;;;;;;;;;;;12.55;84.21;99493.34;5033106;28;1019;-54
2023/04/30 05:23:46;;;;;;;;;;;;;;;13.56;78.61;99497.72;5033029;28;834;-55
2023/04/30 05:26:11;;;;;;;;;;;;;;;13.51;75.35;99495.47;5033257;28;1911;-55
2023/04/30 05:28:39;;;;;;;;;;;;;;;13.21;74.60;99498.00;5032806;28;858;-55
2023/04/30 05:31:05;;;;;;;;;;;;;;;13.02;76.10;99499.59;5033078;28;832;-55
2023/04/30 05:33:32;;;;;;;;;;;;;;;13.10;76.56;99497.47;5032677;28;902;-54
2023/04/30 05:35:59;;;;;;;;;;;;;;;13.24;77.58;99499.91;5032929;28;810;-55
2023/04/30 05:38:26;;;;;;;;;;;;;;;13.07;76.97;99503.84;5032419;28;822;-54
2023/04/30 05:40:53;;;;;;;;;;;;;;;12.79;81.29;99499.63;5032542;28;914;-54
2023/04/30 05:43:20;;;;;;;;;;;;;;;12.52;86.08;99499.72;5031268;28;1314;-55
2023/04/30 05:45:47;;;;;;;;;;;;;;;11.07;93.39;99494.69;5032281;28;1886;-54
2023/04/30 05:48:13;;;;;;;;;;;;;;;10.91;96.56;99492.50;5032441;28;839;-54
2023/04/30 05:50:40;;;;;;;;;;;;;;;11.16;95.91;99500.53;5032235;28;835;-55
2023/04/30 05:53:07;;;;;;;;;;;;;;;11.45;95.08;99500.91;5032267;28;827;-53
2023/04/30 05:55:34;;;;;;;;;;;;;;;11.64;91.44;99501.47;5032200;28;957;-54
2023/04/30 05:58:00;;;;;;;;;;;;;;;11.84;90.10;99509.88;5032436;28;869;-55
2023/04/30 06:00:27;;;;;;;;;;;;;;;12.06;88.35;99499.31;5032232;28;814;-53
2023/04/30 06:02:54;;;;;;;;;;;;;;;12.34;86.94;99505.59;5032181;28;803;-55
2023/04/30 06:05:21;;;;;;;;;;;;;;;12.73;84.79;99509.66;5032003;28;1886;-53
2023/04/30 06:07:48;;;;;;;;;;;;;;;13.48;81.73;99506.22;5032018;28;1168;-54
2023/04/30 06:10:15;;;;;;;;;;;;;;;14.40;76.09;99503.66;5031778;28;1226;-54
2023/04/30 06:12:42;;;;;;;;;;;;;;;15.05;70.14;99509.13;5031970;28;802;-54
2023/04/30 06:15:09;;;;;;;;;;;;;;;15.62;69.51;99506.69;5032012;28;858;-54
2023/04/30 06:17:36;;;;;;;;;;;;;;;16.54;63.09;99504.97;5031841;28;827;-53
2023/04/30 06:20:05;;;;;;;;;;;;;;;17.16;57.98;99503.63;5031791;28;858;-54
2023/04/30 06:22:33;;;;;;;;;;;;;;;17.17;59.42;99504.41;5031352;28;886;-54
2023/04/30 06:25:00;;;;;;;;;;;;;;;16.96;59.02;99503.94;5032566;28;1905;-54
2023/04/30 06:27:27;;;;;;;;;;;;;;;16.53;60.27;99511.00;5032386;28;831;-54
2023/04/30 06:29:55;;;;;;;;;;;;;;;16.57;60.84;99503.28;5032149;28;784;-52
2023/04/30 06:32:22;;;;;;;;;;;;;;;16.87;59.17;99499.06;5031855;28;876;-55
2023/04/30 06:34:48;;;;;;;;;;;;;;;17.45;59.04;99494.94;5014245;28;850;-55
2023/04/30 06:37:15;;;;;;;;;;;;;;;17.41;58.29;99502.72;5031859;28;831;-55
2023/04/30 06:39:41;;;;;;;;;;;;;;;17.55;56.92;99498.59;5031622;28;823;-55
2023/04/30 06:42:08;;;;;;;;;;;;;;;17.68;57.04;99493.69;5031658;28;802;-56
2023/04/30 06:44:35;;;;;;;;;;;;;;;17.47;56.91;99498.06;5031473;28;1882;-56
2023/04/30 06:47:01;;;;;;;;;;;;;;;17.07;58.12;99500.75;5031562;28;818;-55
2023/04/30 06:49:28;;;;;;;;;;;;;;;16.47;60.46;99499.63;5031404;28;790;-55
2023/04/30 06:51:57;;;;;;;;;;;;;;;16.23;61.54;99498.44;5031545;28;795;-56
2023/04/30 06:54:25;;;;;;;;;;;;;;;16.03;61.42;99495.91;5031762;28;893;-56
2023/04/30 06:56:52;;;;;;;;;;;;;;;15.84;61.54;99487.34;5031724;28;815;-54
2023/04/30 06:59:19;;;;;;;;;;;;;;;16.03;63.34;99493.91;5030400;28;1469;-55
2023/04/30 07:01:45;;;;;;;;;;;;;;;16.48;62.55;99487.25;5031700;28;826;-56
2023/04/30 07:04:14;;;;;;;;;;;;;;;16.74;61.28;99487.91;5031745;28;842;-55
2023/04/30 07:06:41;;;;;;;;;;;;;;;16.96;60.70;99498.34;5031762;28;822;-56
2023/04/30 07:09:08;;;;;;;;;;;;;;;17.31;62.16;99496.28;5031810;28;876;-56
2023/04/30 07:11:34;;;;;;;;;;;;;;;18.50;58.31;99497.22;5031582;28;1213;-56
2023/04/30 07:14:01;;;;;;;;;;;;;;;19.47;56.88;99487.38;5031623;28;870;-56
2023/04/30 07:16:28;;;;;;;;;;;;;;;19.86;55.82;99490.38;5031526;28;819;-56
2023/04/30 07:18:55;;;;;;;;;;;;;;;20.69;51.83;99493.47;5031511;28;865;-56
2023/04/30 07:21:24;;;;;;;;;;;;;;;21.25;49.56;99484.56;5031465;28;870;-56
2023/04/30 07:23:51;;;;;;;;;;;;;;;21.27;47.70;99488.44;5031235;28;910;-56
2023/04/30 07:26:18;;;;;;;;;;;;;;;21.91;49.97;99486.16;5031135;28;1964;-56
2023/04/30 07:28:47;;;;;;;;;;;;;;;22.86;42.70;99486.69;5031374;28;866;-56
2023/04/30 07:31:14;;;;;;;;;;;;;;;23.35;39.59;99493.34;5031197;28;869;-56
2023/04/30 07:33:41;;;;;;;;;;;;;;;23.47;39.51;99494.25;5031642;28;811;-54
2023/04/30 07:36:08;;;;;;;;;;;;;;;22.93;37.25;99491.88;5035001;28;998;-54
2023/04/30 07:38:35;;;;;;;;;;;;;;;22.63;37.66;99488.47;5033549;28;1240;-55
2023/04/30 07:41:01;;;;;;;;;;;;;;;23.17;37.91;99494.47;5034870;28;862;-55
2023/04/30 07:43:28;;;;;;;;;;;;;;;23.56;37.11;99496.09;5034728;28;877;-56
2023/04/30 07:45:55;;;;;;;;;;;;;;;23.75;36.00;99499.34;5034772;28;1886;-54
2023/04/30 07:48:22;;;;;;;;;;;;;;;23.97;35.45;99490.28;5034596;28;838;-54
2023/04/30 07:50:48;;;;;;;;;;;;;;;24.12;34.82;99481.66;5034677;28;889;-53
2023/04/30 07:53:15;;;;;;;;;;;;;;;23.78;35.85;99487.06;5034633;28;846;-54
2023/04/30 07:55:41;;;;;;;;;;;;;;;24.38;36.28;99485.13;5034782;28;818;-53
2023/04/30 07:58:08;;;;;;;;;;;;;;;23.92;34.58;99479.72;5034701;28;816;-54
2023/04/30 08:00:34;;;;;;;;;;;;;;;23.17;35.89;99471.13;5034803;28;791;-54
2023/04/30 08:03:01;;;;;;;;;;;;;;;23.83;34.74;99477.88;5034721;28;815;-53
2023/04/30 08:05:27;;;;;;;;;;;;;;;24.25;34.25;99471.44;5033172;28;2192;-53
2023/04/30 08:07:54;;;;;;;;;;;;;;;24.40;34.75;99468.44;5034771;28;1001;-54
2023/04/30 08:10:20;;;;;;;;;;;;;;;24.88;33.65;99469.69;5033967;28;1329;-52
2023/04/30 08:12:48;;;;;;;;;;;;;;;25.54;33.06;99461.81;5034530;28;835;-54
2023/04/30 08:15:15;;;;;;;;;;;;;;;25.69;32.79;99464.38;5035153;28;787;-49
2023/04/30 08:17:42;;;;;;;;;;;;;;;25.05;31.33;99464.06;5034437;28;767;-50
2023/04/30 08:20:08;;;;;;;;;;;;;;;25.16;30.34;99452.00;5034423;28;791;-51
2023/04/30 08:22:35;;;;;;;;;;;;;;;25.39;30.77;99452.78;5034032;28;882;-50
2023/04/30 08:25:02;;;;;;;;;;;;;;;25.84;30.07;99456.38;5033951;28;1913;-50
2023/04/30 08:27:30;;;;;;;;;;;;;;;26.15;29.69;99448.88;5033876;28;879;-50
2023/04/30 08:29:57;;;;;;;;;;;;;;;25.82;28.79;99455.38;5016520;28;835;-53
2023/04/30 08:32:24;;;;;;;;;;;;;;;25.82;30.13;99449.69;5034515;28;795;-54
2023/04/30 08:34:51;;;;;;;;;;;;;;;25.45;30.40;99451.53;5034396;28;1052;-55
2023/04/30 08:37:18;;;;;;;;;;;;;;;25.09;32.61;99453.25;5033793;28;858;-55
2023/04/30 08:39:44;;;;;;;;;;;;;;;25.38;31.82;99446.38;5034642;28;755;-55
2023/04/30 08:42:13;;;;;;;;;;;;;;;26.19;29.53;99449.38;5033706;28;843;-55
2023/04/30 08:44:42;;;;;;;;;;;;;;;26.44;29.90;99450.31;5033809;28;1886;-55
2023/04/30 08:47:12;;;;;;;;;;;;;;;26.03;29.77;99441.69;5032683;28;856;-55
2023/04/30 08:49:39;;;;;;;;;;;;;;;25.93;30.31;99434.78;5033585;28;853;-56
2023/04/30 08:52:05;;;;;;;;;;;;;;;26.27;30.41;99453.22;5033557;28;778;-55
2023/04/30 08:54:34;;;;;;;;;;;;;;;25.74;30.12;99449.44;5033455;28;845;-55
2023/04/30 08:57:01;;;;;;;;;;;;;;;25.86;30.41;99436.03;5033690;28;839;-56
2023/04/30 08:59:28;;;;;;;;;;;;;;;25.93;30.78;99438.38;5033382;28;814;-56
2023/04/30 09:01:55;;;;;;;;;;;;;;;25.77;30.63;99434.25;5033340;28;842;-56
2023/04/30 09:04:22;;;;;;;;;;;;;;;25.69;31.45;99441.75;5015430;28;1902;-56
2023/04/30 09:06:51;;;;;;;;;;;;;;;25.50;29.46;99433.00;5033216;28;838;-56
2023/04/30 09:09:18;;;;;;;;;;;;;;;25.52;30.40;99429.66;5033180;28;990;-57
2023/04/30 09:11:45;;;;;;;;;;;;;;;25.44;30.28;99435.84;5028455;28;1271;-56
2023/04/30 09:14:11;;;;;;;;;;;;;;;25.35;31.11;99427.63;5013455;28;874;-56
2023/04/30 09:16:46;;;;;;;;;;;;;;;24.77;31.51;99427.25;5013144;28;791;-56
2023/04/30 09:19:26;;;;;;;;;;;;;;;23.69;32.60;99419.53;5013233;28;811;-56
2023/04/30 09:21:53;;;;;;;;;;;;;;;23.16;33.93;99424.50;5013513;28;791;-55
2023/04/30 09:24:21;;;;;;;;;;;;;;;22.45;35.24;99429.59;5011882;28;1906;-55
2023/04/30 09:26:48;;;;;;;;;;;;;;;21.45;37.12;99431.28;5013168;28;870;-55
2023/04/30 09:29:14;;;;;;;;;;;;;;;21.71;37.54;99427.84;5013026;28;850;-55
2023/04/30 09:31:45;;;;;;;;;;;;;;;22.24;36.20;99421.19;5013059;28;816;-55
2023/04/30 09:34:12;;;;;;;;;;;;;;;22.63;35.62;99424.44;5011737;28;823;-55
2023/04/30 09:36:54;;;;;;;;;;;;;;;23.12;35.98;99412.66;5012904;28;819;-54
2023/04/30 10:10:30;;;;;;;;;;;;;;;22.11;30.14;99415.88;5372831;22;1820;-66
2023/04/30 10:13:02;;;;;;;;;;;;;;;21.33;31.22;99413.41;5032367;28;814;-66
2023/04/30 10:15:35;;;;;;;;;;;;;;;21.50;31.89;99408.09;5032069;28;818;-66
2023/04/30 10:18:04;;;;;;;;;;;;;;;22.20;31.85;99409.31;5031947;28;909;-66
2023/04/30 10:20:33;;;;;;;;;;;;;;;21.99;31.11;99408.53;5032014;28;798;-65
2023/04/30 10:23:00;;;;;;;;;;;;;;;22.42;32.39;99403.22;5031926;28;810;-65
2023/04/30 10:25:27;;;;;;;;;;;;;;;22.85;32.45;99400.59;5031771;28;1902;-66
2023/04/30 10:27:56;;;;;;;;;;;;;;;23.09;32.32;99400.34;5031747;28;1148;-66
2023/04/30 10:30:23;;;;;;;;;;;;;;;22.82;30.80;99408.00;5031838;28;921;-67
2023/04/30 10:32:53;;;;;;;;;;;;;;;22.84;31.25;99404.69;5013995;28;1347;-66
2023/04/30 10:38:25;;;;;;;;;;;;;;;23.16;31.41;99394.25;5031814;28;637;-66
2023/04/30 10:40:56;;;;;;;;;;;;;;;22.14;31.59;99397.22;5031532;28;854;-67
2023/04/30 10:43:22;;;;;;;;;;;;;;;21.84;31.81;99390.94;5032272;28;767;-66
2023/04/30 10:45:49;;;;;;;;;;;;;;;22.05;31.58;99400.19;5031546;28;1987;-66
2023/04/30 10:48:23;;;;;;;;;;;;;;;22.20;32.24;99386.81;5031549;28;814;-65
2023/04/30 10:50:52;;;;;;;;;;;;;;;21.66;31.84;99392.75;5031574;28;878;-66
2023/04/30 10:53:20;;;;;;;;;;;;;;;21.19;32.75;99397.38;5031513;28;877;-65
2023/04/30 10:55:52;;;;;;;;;;;;;;;20.89;33.77;99388.13;5031526;28;893;-66
2023/04/30 10:58:25;;;;;;;;;;;;;;;20.92;33.61;99398.44;5031567;28;814;-65
2023/04/30 11:01:01;;;;;;;;;;;;;;;21.49;33.32;99388.91;5031647;28;846;-66
2023/04/30 11:03:29;;;;;;;;;;;;;;;22.35;33.25;99390.34;5031427;28;822;-68
2023/04/30 11:05:55;;;;;;;;;;;;;;;22.63;34.43;99389.88;5031449;28;1893;-66
2023/04/30 11:08:34;;;;;;;;;;;;;;;22.71;35.84;99395.88;5031284;28;811;-65
2023/04/30 11:11:01;;;;;;;;;;;;;;;22.80;35.25;99390.06;5035224;28;1246;-67
2023/04/30 11:13:28;;;;;;;;;;;;;;;23.10;34.50;99384.97;5035417;28;826;-67
2023/04/30 11:16:01;;;;;;;;;;;;;;;23.50;34.55;99386.06;5035370;28;838;-67
2023/04/30 11:18:28;;;;;;;;;;;;;;;23.53;34.06;99384.28;5035397;28;897;-67
2023/04/30 11:20:56;;;;;;;;;;;;;;;23.57;34.30;99379.19;5035326;28;889;-68
2023/04/30 11:23:22;;;;;;;;;;;;;;;23.59;34.48;99380.22;5035221;28;865;-66
2023/04/30 11:25:52;;;;;;;;;;;;;;;23.71;34.49;99381.06;5035082;28;1981;-67
2023/04/30 11:28:25;;;;;;;;;;;;;;;23.28;34.41;99378.22;5035107;28;822;-66
2023/04/30 11:30:53;;;;;;;;;;;;;;;23.13;34.85;99386.00;5035240;28;908;-66
2023/04/30 11:33:20;;;;;;;;;;;;;;;23.16;35.16;99377.34;5035219;28;913;-66
2023/04/30 11:35:51;;;;;;;;;;;;;;;23.18;35.52;99371.22;5035004;28;806;-66
2023/04/30 11:38:25;;;;;;;;;;;;;;;23.40;35.99;99371.38;5034843;28;814;-66
2023/04/30 11:40:53;;;;;;;;;;;;;;;23.23;35.01;99370.47;5034851;28;842;-66
2023/04/30 11:43:29;;;;;;;;;;;;;;;23.82;34.82;99369.88;5034866;28;878;-66
2023/04/30 11:46:16;;;;;;;;;;;;;;;24.73;33.81;99367.38;5034681;28;1889;-65
2023/04/30 11:48:44;;;;;;;;;;;;;;;24.66;33.44;99365.81;5034731;28;977;-66
2023/04/30 11:51:17;;;;;;;;;;;;;;;24.82;33.03;99362.25;5034683;28;874;-65
2023/04/30 11:53:46;;;;;;;;;;;;;;;24.55;33.24;99349.63;5035021;28;751;-66
2023/04/30 11:56:13;;;;;;;;;;;;;;;24.20;33.69;99356.44;5034777;28;901;-66
2023/04/30 11:58:39;;;;;;;;;;;;;;;23.89;34.36;99359.38;5034820;28;937;-66
2023/04/30 12:01:08;;;;;;;;;;;;;;;23.77;34.79;99350.06;5034840;28;881;-69
2023/04/30 12:03:42;;;;;;;;;;;;;;;23.20;35.43;99355.34;5034504;28;1044;-66
2023/04/30 12:06:09;;;;;;;;;;;;;;;22.70;36.17;99368.94;5034665;28;1940;-66
2023/04/30 12:08:36;;;;;;;;;;;;;;;22.18;36.24;99359.16;5034271;28;896;-67
2023/04/30 12:11:06;;;;;;;;;;;;;;;21.23;38.81;99361.41;5034107;28;1413;-68
2023/04/30 12:13:33;;;;;;;;;;;;;;;20.58;39.81;99366.91;5034205;28;1143;-68
2023/04/30 12:16:00;;;;;;;;;;;;;;;20.56;39.17;99366.59;5034444;28;861;-66
2023/04/30 12:18:26;;;;;;;;;;;;;;;20.81;39.09;99362.50;5034226;28;919;-66
2023/04/30 12:20:53;;;;;;;;;;;;;;;20.94;39.26;99354.53;5032993;28;798;-66
2023/04/30 12:23:20;;;;;;;;;;;;;;;21.06;38.84;99363.94;5034150;28;814;-66
2023/04/30 12:25:46;;;;;;;;;;;;;;;20.63;39.81;99363.44;5034001;28;1910;-66
2023/04/30 12:28:13;;;;;;;;;;;;;;;19.39;43.19;99366.41;5034253;28;866;-66
2023/04/30 12:30:41;;;;;;;;;;;;;;;19.05;44.76;99359.22;5034202;28;861;-66
2023/04/30 12:33:09;;;;;;;;;;;;;;;19.33;45.52;99359.91;5033942;28;869;-66
2023/04/30 12:35:35;;;;;;;;;;;;;;;20.36;43.28;99358.84;5033927;28;877;-66
2023/04/30 12:38:03;;;;;;;;;;;;;;;22.84;39.16;99346.28;5033752;28;806;-67
2023/04/30 12:40:30;;;;;;;;;;;;;;;23.78;36.90;99343.16;5033845;28;892;-67
2023/04/30 12:43:04;;;;;;;;;;;;;;;23.53;35.63;99341.97;5033801;28;810;-65
2023/04/30 12:45:49;;;;;;;;;;;;;;;23.21;35.77;99342.00;5033622;28;1886;-66
2023/04/30 12:48:17;;;;;;;;;;;;;;;22.58;36.03;99349.13;5033912;28;885;-65
2023/04/30 12:50:58;;;;;;;;;;;;;;;22.29;36.70;99338.06;5033614;28;870;-65
2023/04/30 12:53:25;;;;;;;;;;;;;;;21.93;37.33;99338.13;5033622;28;787;-66
2023/04/30 12:56:11;;;;;;;;;;;;;;;21.56;37.66;99344.28;5033533;28;838;-66
2023/04/30 12:58:38;;;;;;;;;;;;;;;21.37;37.57;99334.53;5033477;28;854;-66
2023/04/30 13:01:09;;;;;;;;;;;;;;;21.52;37.42;99340.91;5033459;28;865;-66
2023/04/30 13:03:37;;;;;;;;;;;;;;;21.71;37.73;99338.59;5033632;28;822;-66
2023/04/30 13:06:05;;;;;;;;;;;;;;;21.55;38.34;99336.34;5031884;28;1981;-66
2023/04/30 13:08:33;;;;;;;;;;;;;;;21.22;39.12;99334.56;5033196;28;913;-65
2023/04/30 13:11:00;;;;;;;;;;;;;;;21.04;39.73;99331.94;5032883;28;1345;-64
2023/04/30 13:13:27;;;;;;;;;;;;;;;21.02;39.57;99335.28;5033134;28;791;-66
2023/04/30 13:15:54;;;;;;;;;;;;;;;21.06;39.57;99335.06;5033319;28;869;-65
2023/04/30 13:18:20;;;;;;;;;;;;;;;20.89;39.42;99331.97;5033102;28;858;-65
2023/04/30 13:20:47;;;;;;;;;;;;;;;20.70;40.00;99332.19;5033057;28;893;-64
2023/04/30 13:23:14;;;;;;;;;;;;;;;20.52;39.93;99332.31;5032957;28;799;-65
2023/04/30 13:25:41;;;;;;;;;;;;;;;20.40;40.21;99336.97;5032892;28;1975;-67
2023/04/30 13:28:08;;;;;;;;;;;;;;;20.52;40.54;99335.13;5032878;28;877;-66
2023/04/30 13:30:35;;;;;;;;;;;;;;;20.61;39.78;99343.47;5032893;28;787;-65
2023/04/30 13:33:02;;;;;;;;;;;;;;;20.80;39.78;99341.25;5032499;28;948;-65
2023/04/30 13:35:28;;;;;;;;;;;;;;;21.38;38.46;99344.50;5032709;28;826;-65
2023/04/30 13:37:58;;;;;;;;;;;;;;;21.47;38.04;99335.22;5031346;28;1169;-66
2023/04/30 13:40:25;;;;;;;;;;;;;;;21.20;38.53;99337.84;5032623;28;869;-66
2023/04/30 13:42:51;;;;;;;;;;;;;;;21.01;38.98;99344.94;5032627;28;857;-66
2023/04/30 13:45:18;;;;;;;;;;;;;;;20.66;38.55;99342.81;5032499;28;1890;-66
2023/04/30 13:47:44;;;;;;;;;;;;;;;20.28;38.11;99340.81;5032536;28;878;-65